sensor_id;sensor_type;location;lat;lon;timestamp;P1;durP1;ratioP1;P2;durP2;ratioP2
35257;SDS011;21385;50.878;8.050;2024-01-15T00:01:26;1.50;;;1.42;;
35257;SDS011;21385;50.878;8.050;2024-01-15T00:03:51;2.35;;;2.15;;
35257;SDS011;21385;50.878;8.050;2024-01-15T00:06:17;2.88;;;2.03;;
35257;SDS011;21385;50.878;8.050;2024-01-15T00:08:43;6.90;;;3.78;;
35257;SDS011;21385;50.878;8.050;2024-01-15T00:11:08;1.85;;;1.75;;
35257;SDS011;21385;50.878;8.050;2024-01-15T00:13:34;2.70;;;2.53;;
35257;SDS011;21385;50.878;8.050;2024-01-15T00:15:59;2.40;;;2.20;;
35257;SDS011;21385;50.878;8.050;2024-01-15T00:18:25;4.13;;;3.75;;
35257;SDS011;21385;50.878;8.050;2024-01-15T00:20:50;3.42;;;3.10;;
35257;SDS011;21385;50.878;8.050;2024-01-15T00:23:16;3.28;;;3.03;;
35257;SDS011;21385;50.878;8.050;2024-01-15T00:25:41;2.65;;;2.45;;
35257;SDS011;21385;50.878;8.050;2024-01-15T00:28:07;17.42;;;4.60;;
35257;SDS011;21385;50.878;8.050;2024-01-15T00:30:33;3.33;;;3.05;;
35257;SDS011;21385;50.878;8.050;2024-01-15T00:32:58;4.35;;;3.75;;
35257;SDS011;21385;50.878;8.050;2024-01-15T00:35:24;3.15;;;2.95;;
35257;SDS011;21385;50.878;8.050;2024-01-15T00:37:49;2.22;;;2.10;;
35257;SDS011;21385;50.878;8.050;2024-01-15T00:40:15;3.50;;;3.25;;
35257;SDS011;21385;50.878;8.050;2024-01-15T00:42:41;2.78;;;2.53;;
35257;SDS011;21385;50.878;8.050;2024-01-15T00:45:06;5.85;;;3.95;;
35257;SDS011;21385;50.878;8.050;2024-01-15T00:47:33;7.45;;;4.60;;
35257;SDS011;21385;50.878;8.050;2024-01-15T00:49:59;2.15;;;2.05;;
35257;SDS011;21385;50.878;8.050;2024-01-15T00:52:25;3.53;;;3.22;;
35257;SDS011;21385;50.878;8.050;2024-01-15T00:54:51;4.68;;;4.22;;
35257;SDS011;21385;50.878;8.050;2024-01-15T00:57:16;3.38;;;2.63;;
35257;SDS011;21385;50.878;8.050;2024-01-15T00:59:44;4.35;;;3.92;;
35257;SDS011;21385;50.878;8.050;2024-01-15T01:02:09;3.13;;;2.45;;
35257;SDS011;21385;50.878;8.050;2024-01-15T01:04:35;3.47;;;3.17;;
35257;SDS011;21385;50.878;8.050;2024-01-15T01:07:01;3.83;;;2.92;;
35257;SDS011;21385;50.878;8.050;2024-01-15T01:09:26;9.50;;;3.42;;
35257;SDS011;21385;50.878;8.050;2024-01-15T01:11:55;3.30;;;2.90;;
35257;SDS011;21385;50.878;8.050;2024-01-15T01:14:20;2.45;;;1.92;;
35257;SDS011;21385;50.878;8.050;2024-01-15T01:16:46;8.13;;;3.45;;
35257;SDS011;21385;50.878;8.050;2024-01-15T01:19:12;4.80;;;3.65;;
35257;SDS011;21385;50.878;8.050;2024-01-15T01:21:37;4.10;;;2.90;;
35257;SDS011;21385;50.878;8.050;2024-01-15T01:24:03;3.13;;;2.90;;
35257;SDS011;21385;50.878;8.050;2024-01-15T01:26:29;1.77;;;1.67;;
35257;SDS011;21385;50.878;8.050;2024-01-15T01:28:55;5.85;;;4.63;;
35257;SDS011;21385;50.878;8.050;2024-01-15T01:31:21;2.95;;;2.05;;
35257;SDS011;21385;50.878;8.050;2024-01-15T01:33:47;10.98;;;3.15;;
35257;SDS011;21385;50.878;8.050;2024-01-15T01:36:13;4.03;;;3.72;;
35257;SDS011;21385;50.878;8.050;2024-01-15T01:38:39;4.03;;;3.25;;
35257;SDS011;21385;50.878;8.050;2024-01-15T01:41:05;2.88;;;2.60;;
35257;SDS011;21385;50.878;8.050;2024-01-15T01:43:30;2.05;;;1.92;;
35257;SDS011;21385;50.878;8.050;2024-01-15T01:45:56;2.60;;;2.40;;
35257;SDS011;21385;50.878;8.050;2024-01-15T01:48:26;2.83;;;2.63;;
35257;SDS011;21385;50.878;8.050;2024-01-15T01:50:57;2.88;;;2.67;;
35257;SDS011;21385;50.878;8.050;2024-01-15T01:53:24;2.47;;;2.35;;
35257;SDS011;21385;50.878;8.050;2024-01-15T01:55:54;2.95;;;2.78;;
35257;SDS011;21385;50.878;8.050;2024-01-15T01:58:22;3.50;;;3.22;;
35257;SDS011;21385;50.878;8.050;2024-01-15T02:00:47;2.28;;;2.13;;
35257;SDS011;21385;50.878;8.050;2024-01-15T02:03:14;2.85;;;2.65;;
35257;SDS011;21385;50.878;8.050;2024-01-15T02:05:40;2.65;;;2.17;;
35257;SDS011;21385;50.878;8.050;2024-01-15T02:08:09;2.28;;;2.17;;
35257;SDS011;21385;50.878;8.050;2024-01-15T02:10:35;2.13;;;1.92;;
35257;SDS011;21385;50.878;8.050;2024-01-15T02:13:01;3.50;;;3.20;;
35257;SDS011;21385;50.878;8.050;2024-01-15T02:15:27;2.22;;;2.03;;
35257;SDS011;21385;50.878;8.050;2024-01-15T02:17:56;2.50;;;2.30;;
35257;SDS011;21385;50.878;8.050;2024-01-15T02:20:25;3.33;;;3.03;;
35257;SDS011;21385;50.878;8.050;2024-01-15T02:22:51;2.78;;;2.58;;
35257;SDS011;21385;50.878;8.050;2024-01-15T02:25:17;5.18;;;4.68;;
35257;SDS011;21385;50.878;8.050;2024-01-15T02:27:43;21.80;;;4.65;;
35257;SDS011;21385;50.878;8.050;2024-01-15T02:30:10;2.70;;;2.50;;
35257;SDS011;21385;50.878;8.050;2024-01-15T02:32:37;3.00;;;2.80;;
35257;SDS011;21385;50.878;8.050;2024-01-15T02:35:03;3.88;;;3.00;;
35257;SDS011;21385;50.878;8.050;2024-01-15T02:37:28;2.85;;;2.67;;
35257;SDS011;21385;50.878;8.050;2024-01-15T02:39:54;1.92;;;1.83;;
35257;SDS011;21385;50.878;8.050;2024-01-15T02:42:20;3.95;;;2.92;;
35257;SDS011;21385;50.878;8.050;2024-01-15T02:44:45;3.50;;;3.30;;
35257;SDS011;21385;50.878;8.050;2024-01-15T02:47:11;5.05;;;3.50;;
35257;SDS011;21385;50.878;8.050;2024-01-15T02:49:36;3.60;;;3.40;;
35257;SDS011;21385;50.878;8.050;2024-01-15T02:52:02;2.75;;;2.55;;
35257;SDS011;21385;50.878;8.050;2024-01-15T02:54:28;3.25;;;2.88;;
35257;SDS011;21385;50.878;8.050;2024-01-15T02:56:53;3.00;;;2.47;;
35257;SDS011;21385;50.878;8.050;2024-01-15T02:59:19;4.60;;;4.18;;
35257;SDS011;21385;50.878;8.050;2024-01-15T03:01:44;9.73;;;3.75;;
35257;SDS011;21385;50.878;8.050;2024-01-15T03:04:10;13.20;;;4.20;;
35257;SDS011;21385;50.878;8.050;2024-01-15T03:06:35;8.05;;;4.70;;
35257;SDS011;21385;50.878;8.050;2024-01-15T03:09:01;3.28;;;3.08;;
35257;SDS011;21385;50.878;8.050;2024-01-15T03:11:28;2.92;;;2.78;;
35257;SDS011;21385;50.878;8.050;2024-01-15T03:13:54;3.58;;;3.22;;
35257;SDS011;21385;50.878;8.050;2024-01-15T03:16:19;8.98;;;3.33;;
35257;SDS011;21385;50.878;8.050;2024-01-15T03:18:45;6.55;;;4.38;;
35257;SDS011;21385;50.878;8.050;2024-01-15T03:21:11;5.82;;;3.70;;
35257;SDS011;21385;50.878;8.050;2024-01-15T03:23:36;6.75;;;4.05;;
35257;SDS011;21385;50.878;8.050;2024-01-15T03:26:03;3.53;;;3.10;;
35257;SDS011;21385;50.878;8.050;2024-01-15T03:28:28;3.75;;;3.25;;
35257;SDS011;21385;50.878;8.050;2024-01-15T03:30:55;3.10;;;2.47;;
35257;SDS011;21385;50.878;8.050;2024-01-15T03:33:21;3.28;;;2.97;;
35257;SDS011;21385;50.878;8.050;2024-01-15T03:35:46;6.22;;;4.00;;
35257;SDS011;21385;50.878;8.050;2024-01-15T03:38:12;4.40;;;4.00;;
35257;SDS011;21385;50.878;8.050;2024-01-15T03:40:37;5.20;;;4.57;;
35257;SDS011;21385;50.878;8.050;2024-01-15T03:43:03;3.05;;;2.85;;
35257;SDS011;21385;50.878;8.050;2024-01-15T03:45:29;2.75;;;2.60;;
35257;SDS011;21385;50.878;8.050;2024-01-15T03:47:54;2.08;;;1.98;;
35257;SDS011;21385;50.878;8.050;2024-01-15T03:50:20;4.30;;;3.55;;
35257;SDS011;21385;50.878;8.050;2024-01-15T03:52:45;8.20;;;4.88;;
35257;SDS011;21385;50.878;8.050;2024-01-15T03:55:11;4.80;;;4.03;;
35257;SDS011;21385;50.878;8.050;2024-01-15T03:57:36;5.28;;;4.88;;
35257;SDS011;21385;50.878;8.050;2024-01-15T04:00:02;5.10;;;4.70;;
35257;SDS011;21385;50.878;8.050;2024-01-15T04:02:28;7.43;;;4.28;;
35257;SDS011;21385;50.878;8.050;2024-01-15T04:04:54;4.93;;;4.32;;
35257;SDS011;21385;50.878;8.050;2024-01-15T04:07:19;4.35;;;3.95;;
35257;SDS011;21385;50.878;8.050;2024-01-15T04:09:45;5.13;;;4.72;;
35257;SDS011;21385;50.878;8.050;2024-01-15T04:12:10;10.95;;;4.47;;
35257;SDS011;21385;50.878;8.050;2024-01-15T04:14:36;3.50;;;3.13;;
35257;SDS011;21385;50.878;8.050;2024-01-15T04:17:02;6.72;;;5.13;;
35257;SDS011;21385;50.878;8.050;2024-01-15T04:19:27;5.30;;;4.35;;
35257;SDS011;21385;50.878;8.050;2024-01-15T04:21:53;5.60;;;2.70;;
35257;SDS011;21385;50.878;8.050;2024-01-15T04:24:18;4.47;;;4.03;;
35257;SDS011;21385;50.878;8.050;2024-01-15T04:26:45;5.80;;;4.53;;
35257;SDS011;21385;50.878;8.050;2024-01-15T04:29:10;9.27;;;4.10;;
35257;SDS011;21385;50.878;8.050;2024-01-15T04:31:37;9.07;;;5.45;;
35257;SDS011;21385;50.878;8.050;2024-01-15T04:34:02;9.90;;;2.50;;
35257;SDS011;21385;50.878;8.050;2024-01-15T04:36:28;3.05;;;2.85;;
35257;SDS011;21385;50.878;8.050;2024-01-15T04:38:53;4.60;;;4.18;;
35257;SDS011;21385;50.878;8.050;2024-01-15T04:41:19;4.25;;;3.95;;
35257;SDS011;21385;50.878;8.050;2024-01-15T04:43:45;4.05;;;3.78;;
35257;SDS011;21385;50.878;8.050;2024-01-15T04:46:11;4.00;;;3.60;;
35257;SDS011;21385;50.878;8.050;2024-01-15T04:48:36;3.08;;;2.85;;
35257;SDS011;21385;50.878;8.050;2024-01-15T04:51:05;6.18;;;3.63;;
35257;SDS011;21385;50.878;8.050;2024-01-15T04:53:34;6.40;;;4.43;;
35257;SDS011;21385;50.878;8.050;2024-01-15T04:55:59;5.32;;;3.45;;
35257;SDS011;21385;50.878;8.050;2024-01-15T04:58:25;4.15;;;3.75;;
35257;SDS011;21385;50.878;8.050;2024-01-15T05:00:52;2.60;;;2.40;;
35257;SDS011;21385;50.878;8.050;2024-01-15T05:03:17;5.60;;;4.95;;
35257;SDS011;21385;50.878;8.050;2024-01-15T05:05:43;4.78;;;3.33;;
35257;SDS011;21385;50.878;8.050;2024-01-15T05:08:09;5.55;;;4.50;;
35257;SDS011;21385;50.878;8.050;2024-01-15T05:10:34;2.95;;;2.75;;
35257;SDS011;21385;50.878;8.050;2024-01-15T05:13:00;3.38;;;3.17;;
35257;SDS011;21385;50.878;8.050;2024-01-15T05:15:26;3.25;;;2.97;;
35257;SDS011;21385;50.878;8.050;2024-01-15T05:17:51;3.05;;;2.85;;
35257;SDS011;21385;50.878;8.050;2024-01-15T05:20:17;8.95;;;5.45;;
35257;SDS011;21385;50.878;8.050;2024-01-15T05:22:42;2.80;;;2.60;;
35257;SDS011;21385;50.878;8.050;2024-01-15T05:25:08;10.95;;;4.20;;
35257;SDS011;21385;50.878;8.050;2024-01-15T05:27:33;4.57;;;4.18;;
35257;SDS011;21385;50.878;8.050;2024-01-15T05:29:59;3.10;;;2.90;;
35257;SDS011;21385;50.878;8.050;2024-01-15T05:32:24;3.05;;;2.85;;
35257;SDS011;21385;50.878;8.050;2024-01-15T05:34:50;4.30;;;3.65;;
35257;SDS011;21385;50.878;8.050;2024-01-15T05:37:16;11.70;;;5.60;;
35257;SDS011;21385;50.878;8.050;2024-01-15T05:39:41;2.40;;;2.30;;
35257;SDS011;21385;50.878;8.050;2024-01-15T05:42:07;4.78;;;4.28;;
35257;SDS011;21385;50.878;8.050;2024-01-15T05:44:32;3.08;;;2.85;;
35257;SDS011;21385;50.878;8.050;2024-01-15T05:46:58;10.43;;;3.72;;
35257;SDS011;21385;50.878;8.050;2024-01-15T05:49:23;3.22;;;3.03;;
35257;SDS011;21385;50.878;8.050;2024-01-15T05:51:49;5.45;;;4.78;;
35257;SDS011;21385;50.878;8.050;2024-01-15T05:54:15;8.98;;;4.38;;
35257;SDS011;21385;50.878;8.050;2024-01-15T05:56:42;3.50;;;3.30;;
35257;SDS011;21385;50.878;8.050;2024-01-15T05:59:08;4.93;;;4.45;;
35257;SDS011;21385;50.878;8.050;2024-01-15T06:01:33;4.57;;;4.28;;
35257;SDS011;21385;50.878;8.050;2024-01-15T06:03:59;10.82;;;5.53;;
35257;SDS011;21385;50.878;8.050;2024-01-15T06:06:24;4.28;;;3.85;;
35257;SDS011;21385;50.878;8.050;2024-01-15T06:08:50;6.15;;;5.63;;
35257;SDS011;21385;50.878;8.050;2024-01-15T06:11:15;5.82;;;4.55;;
35257;SDS011;21385;50.878;8.050;2024-01-15T06:13:41;13.30;;;7.10;;
35257;SDS011;21385;50.878;8.050;2024-01-15T06:16:13;3.35;;;2.97;;
35257;SDS011;21385;50.878;8.050;2024-01-15T06:18:44;5.07;;;4.15;;
35257;SDS011;21385;50.878;8.050;2024-01-15T06:21:09;2.92;;;2.72;;
35257;SDS011;21385;50.878;8.050;2024-01-15T06:23:37;4.00;;;2.58;;
35257;SDS011;21385;50.878;8.050;2024-01-15T06:26:03;3.30;;;2.63;;
35257;SDS011;21385;50.878;8.050;2024-01-15T06:28:29;5.07;;;3.90;;
35257;SDS011;21385;50.878;8.050;2024-01-15T06:30:55;3.88;;;3.53;;
35257;SDS011;21385;50.878;8.050;2024-01-15T06:33:20;3.38;;;2.95;;
35257;SDS011;21385;50.878;8.050;2024-01-15T06:35:46;3.42;;;3.13;;
35257;SDS011;21385;50.878;8.050;2024-01-15T06:38:11;3.45;;;2.63;;
35257;SDS011;21385;50.878;8.050;2024-01-15T06:40:37;13.70;;;5.85;;
35257;SDS011;21385;50.878;8.050;2024-01-15T06:43:04;3.90;;;3.00;;
35257;SDS011;21385;50.878;8.050;2024-01-15T06:45:30;8.35;;;5.22;;
35257;SDS011;21385;50.878;8.050;2024-01-15T06:47:55;6.50;;;3.92;;
35257;SDS011;21385;50.878;8.050;2024-01-15T06:50:21;17.08;;;5.93;;
35257;SDS011;21385;50.878;8.050;2024-01-15T06:52:46;3.10;;;2.88;;
35257;SDS011;21385;50.878;8.050;2024-01-15T06:55:12;5.50;;;3.67;;
35257;SDS011;21385;50.878;8.050;2024-01-15T06:57:38;3.40;;;2.97;;
35257;SDS011;21385;50.878;8.050;2024-01-15T07:00:03;5.07;;;4.13;;
35257;SDS011;21385;50.878;8.050;2024-01-15T07:02:32;8.57;;;5.03;;
35257;SDS011;21385;50.878;8.050;2024-01-15T07:04:58;4.15;;;3.78;;
35257;SDS011;21385;50.878;8.050;2024-01-15T07:07:23;7.53;;;2.85;;
35257;SDS011;21385;50.878;8.050;2024-01-15T07:09:50;4.00;;;3.45;;
35257;SDS011;21385;50.878;8.050;2024-01-15T07:12:17;3.83;;;3.10;;
35257;SDS011;21385;50.878;8.050;2024-01-15T07:14:42;3.40;;;3.10;;
35257;SDS011;21385;50.878;8.050;2024-01-15T07:17:08;4.22;;;3.80;;
35257;SDS011;21385;50.878;8.050;2024-01-15T07:19:33;4.53;;;3.30;;
35257;SDS011;21385;50.878;8.050;2024-01-15T07:21:59;7.93;;;3.30;;
35257;SDS011;21385;50.878;8.050;2024-01-15T07:24:25;4.20;;;3.25;;
35257;SDS011;21385;50.878;8.050;2024-01-15T07:26:50;7.25;;;4.30;;
35257;SDS011;21385;50.878;8.050;2024-01-15T07:29:16;6.47;;;3.60;;
35257;SDS011;21385;50.878;8.050;2024-01-15T07:31:47;3.03;;;2.67;;
35257;SDS011;21385;50.878;8.050;2024-01-15T07:34:14;3.80;;;3.30;;
35257;SDS011;21385;50.878;8.050;2024-01-15T07:36:39;4.55;;;2.50;;
35257;SDS011;21385;50.878;8.050;2024-01-15T07:39:05;8.75;;;1.48;;
35257;SDS011;21385;50.878;8.050;2024-01-15T07:41:30;2.28;;;2.08;;
35257;SDS011;21385;50.878;8.050;2024-01-15T07:43:56;1.90;;;1.80;;
35257;SDS011;21385;50.878;8.050;2024-01-15T07:46:22;3.05;;;2.30;;
35257;SDS011;21385;50.878;8.050;2024-01-15T07:48:48;5.75;;;4.78;;
35257;SDS011;21385;50.878;8.050;2024-01-15T07:51:16;4.75;;;2.15;;
35257;SDS011;21385;50.878;8.050;2024-01-15T07:53:41;2.63;;;2.42;;
35257;SDS011;21385;50.878;8.050;2024-01-15T07:56:07;3.75;;;2.00;;
35257;SDS011;21385;50.878;8.050;2024-01-15T07:58:33;2.72;;;2.35;;
35257;SDS011;21385;50.878;8.050;2024-01-15T08:00:58;2.55;;;2.35;;
35257;SDS011;21385;50.878;8.050;2024-01-15T08:03:24;2.67;;;2.53;;
35257;SDS011;21385;50.878;8.050;2024-01-15T08:05:49;2.25;;;2.10;;
35257;SDS011;21385;50.878;8.050;2024-01-15T08:08:17;1.75;;;1.65;;
35257;SDS011;21385;50.878;8.050;2024-01-15T08:10:43;1.77;;;1.67;;
35257;SDS011;21385;50.878;8.050;2024-01-15T08:13:09;4.63;;;2.72;;
35257;SDS011;21385;50.878;8.050;2024-01-15T08:15:34;1.92;;;1.83;;
35257;SDS011;21385;50.878;8.050;2024-01-15T08:18:00;1.52;;;1.42;;
35257;SDS011;21385;50.878;8.050;2024-01-15T08:20:25;1.77;;;1.67;;
35257;SDS011;21385;50.878;8.050;2024-01-15T08:22:51;7.72;;;4.22;;
35257;SDS011;21385;50.878;8.050;2024-01-15T08:25:17;2.22;;;2.08;;
35257;SDS011;21385;50.878;8.050;2024-01-15T08:27:43;3.88;;;2.45;;
35257;SDS011;21385;50.878;8.050;2024-01-15T08:30:08;5.07;;;3.03;;
35257;SDS011;21385;50.878;8.050;2024-01-15T08:32:35;1.58;;;1.48;;
35257;SDS011;21385;50.878;8.050;2024-01-15T08:35:05;2.00;;;1.90;;
35257;SDS011;21385;50.878;8.050;2024-01-15T08:37:31;1.67;;;1.55;;
35257;SDS011;21385;50.878;8.050;2024-01-15T08:39:57;2.05;;;1.92;;
35257;SDS011;21385;50.878;8.050;2024-01-15T08:42:22;2.17;;;2.03;;
35257;SDS011;21385;50.878;8.050;2024-01-15T08:44:48;2.03;;;1.92;;
35257;SDS011;21385;50.878;8.050;2024-01-15T08:47:13;1.00;;;1.00;;
35257;SDS011;21385;50.878;8.050;2024-01-15T08:49:39;1.75;;;1.65;;
35257;SDS011;21385;50.878;8.050;2024-01-15T08:52:05;1.67;;;1.58;;
35257;SDS011;21385;50.878;8.050;2024-01-15T08:54:32;0.82;;;0.82;;
35257;SDS011;21385;50.878;8.050;2024-01-15T08:56:57;1.33;;;1.30;;
35257;SDS011;21385;50.878;8.050;2024-01-15T08:59:24;3.88;;;1.13;;
35257;SDS011;21385;50.878;8.050;2024-01-15T09:01:51;1.45;;;1.35;;
35257;SDS011;21385;50.878;8.050;2024-01-15T09:04:17;1.60;;;1.50;;
35257;SDS011;21385;50.878;8.050;2024-01-15T09:06:46;1.38;;;1.27;;
35257;SDS011;21385;50.878;8.050;2024-01-15T09:09:12;3.92;;;1.95;;
35257;SDS011;21385;50.878;8.050;2024-01-15T09:11:39;1.73;;;1.15;;
35257;SDS011;21385;50.878;8.050;2024-01-15T09:14:05;1.67;;;1.58;;
35257;SDS011;21385;50.878;8.050;2024-01-15T09:16:30;1.60;;;1.50;;
35257;SDS011;21385;50.878;8.050;2024-01-15T09:18:56;1.42;;;1.33;;
35257;SDS011;21385;50.878;8.050;2024-01-15T09:21:24;3.28;;;2.90;;
35257;SDS011;21385;50.878;8.050;2024-01-15T09:23:50;1.40;;;1.27;;
35257;SDS011;21385;50.878;8.050;2024-01-15T09:26:17;1.33;;;1.33;;
35257;SDS011;21385;50.878;8.050;2024-01-15T09:28:43;2.08;;;1.95;;
35257;SDS011;21385;50.878;8.050;2024-01-15T09:31:08;1.65;;;1.55;;
35257;SDS011;21385;50.878;8.050;2024-01-15T09:33:34;2.15;;;1.90;;
35257;SDS011;21385;50.878;8.050;2024-01-15T09:36:03;1.60;;;1.50;;
35257;SDS011;21385;50.878;8.050;2024-01-15T09:38:32;2.13;;;1.80;;
35257;SDS011;21385;50.878;8.050;2024-01-15T09:40:57;0.98;;;0.98;;
35257;SDS011;21385;50.878;8.050;2024-01-15T09:43:23;3.30;;;3.00;;
35257;SDS011;21385;50.878;8.050;2024-01-15T09:45:49;1.65;;;1.55;;
35257;SDS011;21385;50.878;8.050;2024-01-15T09:48:16;8.23;;;1.95;;
35257;SDS011;21385;50.878;8.050;2024-01-15T09:50:42;2.72;;;2.42;;
35257;SDS011;21385;50.878;8.050;2024-01-15T09:53:08;1.58;;;1.48;;
35257;SDS011;21385;50.878;8.050;2024-01-15T09:55:35;4.00;;;2.17;;
35257;SDS011;21385;50.878;8.050;2024-01-15T09:58:04;1.58;;;1.48;;
35257;SDS011;21385;50.878;8.050;2024-01-15T10:00:30;3.40;;;1.83;;
35257;SDS011;21385;50.878;8.050;2024-01-15T10:02:56;2.38;;;2.15;;
35257;SDS011;21385;50.878;8.050;2024-01-15T10:05:22;1.70;;;1.60;;
35257;SDS011;21385;50.878;8.050;2024-01-15T10:07:48;1.75;;;1.65;;
35257;SDS011;21385;50.878;8.050;2024-01-15T10:10:15;2.17;;;1.48;;
35257;SDS011;21385;50.878;8.050;2024-01-15T10:12:40;2.90;;;2.10;;
35257;SDS011;21385;50.878;8.050;2024-01-15T10:15:09;4.18;;;2.10;;
35257;SDS011;21385;50.878;8.050;2024-01-15T10:17:36;1.45;;;1.40;;
35257;SDS011;21385;50.878;8.050;2024-01-15T10:20:06;4.00;;;1.70;;
35257;SDS011;21385;50.878;8.050;2024-01-15T10:22:38;3.58;;;2.13;;
35257;SDS011;21385;50.878;8.050;2024-01-15T10:25:05;2.55;;;2.35;;
35257;SDS011;21385;50.878;8.050;2024-01-15T10:27:31;2.08;;;1.65;;
35257;SDS011;21385;50.878;8.050;2024-01-15T10:30:00;1.10;;;1.00;;
35257;SDS011;21385;50.878;8.050;2024-01-15T10:32:27;2.05;;;1.85;;
35257;SDS011;21385;50.878;8.050;2024-01-15T10:34:52;5.18;;;2.35;;
35257;SDS011;21385;50.878;8.050;2024-01-15T10:37:19;1.73;;;1.63;;
35257;SDS011;21385;50.878;8.050;2024-01-15T10:39:46;2.42;;;2.17;;
35257;SDS011;21385;50.878;8.050;2024-01-15T10:42:12;1.73;;;1.63;;
35257;SDS011;21385;50.878;8.050;2024-01-15T10:44:37;1.88;;;1.77;;
35257;SDS011;21385;50.878;8.050;2024-01-15T10:47:03;1.15;;;1.15;;
35257;SDS011;21385;50.878;8.050;2024-01-15T10:49:29;4.38;;;2.65;;
35257;SDS011;21385;50.878;8.050;2024-01-15T10:51:56;0.82;;;0.82;;
35257;SDS011;21385;50.878;8.050;2024-01-15T10:54:22;3.08;;;1.27;;
35257;SDS011;21385;50.878;8.050;2024-01-15T10:56:49;2.10;;;2.00;;
35257;SDS011;21385;50.878;8.050;2024-01-15T10:59:16;1.52;;;1.30;;
35257;SDS011;21385;50.878;8.050;2024-01-15T11:01:42;1.67;;;1.58;;
35257;SDS011;21385;50.878;8.050;2024-01-15T11:04:08;2.70;;;2.15;;
35257;SDS011;21385;50.878;8.050;2024-01-15T11:06:44;7.65;;;1.00;;
35257;SDS011;21385;50.878;8.050;2024-01-15T11:09:11;0.77;;;0.77;;
35257;SDS011;21385;50.878;8.050;2024-01-15T11:11:41;1.23;;;1.05;;
35257;SDS011;21385;50.878;8.050;2024-01-15T11:14:09;1.65;;;1.27;;
35257;SDS011;21385;50.878;8.050;2024-01-15T11:16:54;0.73;;;0.73;;
35257;SDS011;21385;50.878;8.050;2024-01-15T11:19:21;2.15;;;2.05;;
35257;SDS011;21385;50.878;8.050;2024-01-15T11:21:47;1.70;;;1.08;;
35257;SDS011;21385;50.878;8.050;2024-01-15T11:24:33;0.80;;;0.80;;
35257;SDS011;21385;50.878;8.050;2024-01-15T11:27:00;1.83;;;1.73;;
35257;SDS011;21385;50.878;8.050;2024-01-15T11:37:16;0.38;;;0.38;;
35257;SDS011;21385;50.878;8.050;2024-01-15T11:39:42;1.50;;;1.48;;
35257;SDS011;21385;50.878;8.050;2024-01-15T11:42:08;1.38;;;1.27;;
35257;SDS011;21385;50.878;8.050;2024-01-15T11:44:36;1.52;;;1.25;;
35257;SDS011;21385;50.878;8.050;2024-01-15T11:47:03;1.38;;;0.85;;
35257;SDS011;21385;50.878;8.050;2024-01-15T11:52:23;0.65;;;0.65;;
35257;SDS011;21385;50.878;8.050;2024-01-15T11:55:00;4.30;;;1.00;;
35257;SDS011;21385;50.878;8.050;2024-01-15T12:00:19;0.40;;;0.40;;
35257;SDS011;21385;50.878;8.050;2024-01-15T12:02:46;0.65;;;0.65;;
35257;SDS011;21385;50.878;8.050;2024-01-15T12:05:17;0.60;;;0.60;;
35257;SDS011;21385;50.878;8.050;2024-01-15T12:07:45;0.32;;;0.32;;
35257;SDS011;21385;50.878;8.050;2024-01-15T12:10:15;0.43;;;0.43;;
35257;SDS011;21385;50.878;8.050;2024-01-15T12:12:57;0.40;;;0.40;;
35257;SDS011;21385;50.878;8.050;2024-01-15T12:15:44;0.70;;;0.68;;
35257;SDS011;21385;50.878;8.050;2024-01-15T12:18:14;0.75;;;0.75;;
35257;SDS011;21385;50.878;8.050;2024-01-15T12:20:41;0.65;;;0.30;;
35257;SDS011;21385;50.878;8.050;2024-01-15T12:23:09;0.63;;;0.63;;
35257;SDS011;21385;50.878;8.050;2024-01-15T12:25:35;0.40;;;0.40;;
35257;SDS011;21385;50.878;8.050;2024-01-15T12:28:01;0.63;;;0.63;;
35257;SDS011;21385;50.878;8.050;2024-01-15T12:30:28;0.50;;;0.50;;
35257;SDS011;21385;50.878;8.050;2024-01-15T12:32:54;0.60;;;0.60;;
35257;SDS011;21385;50.878;8.050;2024-01-15T12:35:20;0.85;;;0.85;;
35257;SDS011;21385;50.878;8.050;2024-01-15T12:37:46;0.17;;;0.17;;
35257;SDS011;21385;50.878;8.050;2024-01-15T12:40:13;0.55;;;0.55;;
35257;SDS011;21385;50.878;8.050;2024-01-15T12:42:43;0.32;;;0.32;;
35257;SDS011;21385;50.878;8.050;2024-01-15T12:45:09;0.15;;;0.10;;
35257;SDS011;21385;50.878;8.050;2024-01-15T12:47:36;0.95;;;0.85;;
35257;SDS011;21385;50.878;8.050;2024-01-15T12:50:02;0.20;;;0.20;;
35257;SDS011;21385;50.878;8.050;2024-01-15T12:52:31;0.40;;;0.40;;
35257;SDS011;21385;50.878;8.050;2024-01-15T12:54:57;0.10;;;0.10;;
35257;SDS011;21385;50.878;8.050;2024-01-15T12:57:23;0.22;;;0.20;;
35257;SDS011;21385;50.878;8.050;2024-01-15T12:59:49;0.47;;;0.47;;
35257;SDS011;21385;50.878;8.050;2024-01-15T13:02:17;3.40;;;1.10;;
35257;SDS011;21385;50.878;8.050;2024-01-15T13:04:43;0.90;;;0.90;;
35257;SDS011;21385;50.878;8.050;2024-01-15T13:07:09;0.10;;;0.10;;
35257;SDS011;21385;50.878;8.050;2024-01-15T13:09:34;0.50;;;0.50;;
35257;SDS011;21385;50.878;8.050;2024-01-15T13:12:01;0.77;;;0.77;;
35257;SDS011;21385;50.878;8.050;2024-01-15T13:14:27;0.40;;;0.25;;
35257;SDS011;21385;50.878;8.050;2024-01-15T13:16:53;0.70;;;0.70;;
35257;SDS011;21385;50.878;8.050;2024-01-15T13:19:19;5.00;;;1.08;;
35257;SDS011;21385;50.878;8.050;2024-01-15T13:21:46;4.68;;;1.05;;
35257;SDS011;21385;50.878;8.050;2024-01-15T13:24:12;1.83;;;1.40;;
35257;SDS011;21385;50.878;8.050;2024-01-15T13:26:39;2.33;;;1.30;;
35257;SDS011;21385;50.878;8.050;2024-01-15T13:29:05;0.30;;;0.30;;
35257;SDS011;21385;50.878;8.050;2024-01-15T13:31:31;0.40;;;0.40;;
35257;SDS011;21385;50.878;8.050;2024-01-15T13:33:58;0.35;;;0.35;;
35257;SDS011;21385;50.878;8.050;2024-01-15T13:36:24;0.93;;;0.88;;
35257;SDS011;21385;50.878;8.050;2024-01-15T13:38:53;0.75;;;0.75;;
35257;SDS011;21385;50.878;8.050;2024-01-15T13:41:19;0.45;;;0.45;;
35257;SDS011;21385;50.878;8.050;2024-01-15T13:43:52;0.63;;;0.63;;
35257;SDS011;21385;50.878;8.050;2024-01-15T13:46:19;0.98;;;0.82;;
35257;SDS011;21385;50.878;8.050;2024-01-15T13:48:49;0.73;;;0.73;;
35257;SDS011;21385;50.878;8.050;2024-01-15T13:51:14;6.03;;;0.60;;
35257;SDS011;21385;50.878;8.050;2024-01-15T13:53:40;0.68;;;0.52;;
35257;SDS011;21385;50.878;8.050;2024-01-15T13:56:06;1.23;;;1.15;;
35257;SDS011;21385;50.878;8.050;2024-01-15T13:58:33;3.00;;;1.52;;
35257;SDS011;21385;50.878;8.050;2024-01-15T14:01:00;2.42;;;1.08;;
35257;SDS011;21385;50.878;8.050;2024-01-15T14:03:26;0.63;;;0.63;;
35257;SDS011;21385;50.878;8.050;2024-01-15T14:05:51;1.55;;;1.40;;
35257;SDS011;21385;50.878;8.050;2024-01-15T14:08:17;2.33;;;2.08;;
35257;SDS011;21385;50.878;8.050;2024-01-15T14:10:43;1.05;;;0.70;;
35257;SDS011;21385;50.878;8.050;2024-01-15T14:13:09;0.55;;;0.50;;
35257;SDS011;21385;50.878;8.050;2024-01-15T14:15:34;0.80;;;0.80;;
35257;SDS011;21385;50.878;8.050;2024-01-15T14:18:00;1.35;;;1.25;;
35257;SDS011;21385;50.878;8.050;2024-01-15T14:20:26;0.38;;;0.38;;
35257;SDS011;21385;50.878;8.050;2024-01-15T14:22:52;0.45;;;0.45;;
35257;SDS011;21385;50.878;8.050;2024-01-15T14:25:19;0.80;;;0.80;;
35257;SDS011;21385;50.878;8.050;2024-01-15T14:27:45;1.63;;;1.52;;
35257;SDS011;21385;50.878;8.050;2024-01-15T14:30:10;1.17;;;0.98;;
35257;SDS011;21385;50.878;8.050;2024-01-15T14:32:38;1.17;;;1.08;;
35257;SDS011;21385;50.878;8.050;2024-01-15T14:35:04;1.02;;;0.57;;
35257;SDS011;21385;50.878;8.050;2024-01-15T14:37:30;3.13;;;1.00;;
35257;SDS011;21385;50.878;8.050;2024-01-15T14:39:56;1.75;;;1.52;;
35257;SDS011;21385;50.878;8.050;2024-01-15T14:42:22;1.85;;;1.75;;
35257;SDS011;21385;50.878;8.050;2024-01-15T14:44:49;1.65;;;0.95;;
35257;SDS011;21385;50.878;8.050;2024-01-15T14:47:14;0.98;;;0.93;;
35257;SDS011;21385;50.878;8.050;2024-01-15T14:49:40;0.70;;;0.70;;
35257;SDS011;21385;50.878;8.050;2024-01-15T14:52:05;0.82;;;0.82;;
35257;SDS011;21385;50.878;8.050;2024-01-15T14:54:31;0.95;;;0.95;;
35257;SDS011;21385;50.878;8.050;2024-01-15T14:56:57;1.50;;;1.42;;